Pierces Corner, New York
Current Conditions -  °F | °C
As of 8:38 AM on Friday 28 Nov 2014 (Local Time) from KGTB Reporting Station
Light Snow Light Snow  
Wind Chill: 21°   Ceiling: 1100
Heat Index: 21°   Visibility: 8mi
Dew Point: 19°   Wind: 3mph
Humidity: 93%   Direction: 270°W
Pressure: 30.14"   Gusts: NA
Location:  44.3309°N, 75.4775°W
Report Text: KGTB 281338Z AUTO 27003KT 8SM -SN BKN011 BKN018 OVC040 M06/M07 A3014 RMK AO2 CIG 011V019
Loading
Personal Weather Stations






























Interactive Weather Map New forecast layout! Learn more

10-Day Weather Forecast

Advertisements
Track Severe Weather on mobile